createdAt,value
2019-01-23T00:02:28.529Z,65.80
2019-01-23T00:04:59.483Z,65.77
2019-01-23T00:07:30.403Z,62.60
2019-01-23T00:10:01.297Z,65.60
2019-01-23T00:12:32.249Z,60.43
2019-01-23T00:15:03.142Z,67.03
2019-01-23T00:17:34.030Z,58.20
2019-01-23T00:20:05.635Z,68.20
2019-01-23T00:22:36.537Z,62.33
2019-01-23T00:25:07.851Z,54.33
2019-01-23T00:27:38.854Z,61.53
2019-01-23T00:30:10.010Z,63.57
2019-01-23T00:32:40.897Z,70.93
2019-01-23T00:35:12.055Z,68.67
2019-01-23T00:37:42.995Z,62.93
2019-01-23T00:40:14.183Z,58.77
2019-01-23T00:42:45.132Z,64.17
2019-01-23T00:45:17.319Z,74.10
2019-01-23T00:47:48.219Z,74.10
2019-01-23T00:50:19.267Z,58.07
2019-01-23T00:52:50.159Z,68.73
2019-01-23T00:55:21.103Z,59.43
2019-01-23T00:57:52.047Z,71.00
2019-01-23T01:00:25.658Z,72.37
2019-01-23T01:02:57.421Z,71.07
2019-01-23T01:05:28.318Z,68.37
2019-01-23T01:07:59.219Z,64.23
2019-01-23T01:10:30.197Z,65.03
2019-01-23T01:13:01.093Z,68.50
2019-01-23T01:15:32.274Z,68.20
2019-01-23T01:18:03.292Z,74.43
2019-01-23T01:20:34.194Z,70.30
2019-01-23T01:23:05.096Z,64.33
2019-01-23T01:25:36.044Z,60.20
2019-01-23T01:28:07.108Z,63.53
2019-01-23T01:30:38.010Z,70.23
2019-01-23T01:33:08.999Z,68.83
2019-01-23T01:35:40.201Z,64.50
2019-01-23T01:38:11.162Z,68.43
2019-01-23T01:40:42.157Z,66.17
2019-01-23T01:43:13.054Z,70.47
2019-01-23T01:45:43.966Z,62.23
2019-01-23T01:48:14.930Z,60.17
2019-01-23T01:50:46.176Z,70.43
2019-01-23T01:53:17.164Z,57.93
2019-01-23T01:55:48.144Z,77.60
2019-01-23T01:58:19.118Z,63.40
2019-01-23T02:00:50.020Z,67.13
2019-01-23T02:03:21.034Z,69.63
2019-01-23T02:05:51.944Z,62.57
2019-01-23T02:08:23.161Z,72.93
2019-01-23T02:10:54.496Z,63.47
2019-01-23T02:13:25.408Z,67.27
2019-01-23T02:15:56.352Z,69.27
2019-01-23T02:18:27.446Z,70.70
2019-01-23T02:20:58.474Z,64.00
2019-01-23T02:23:29.379Z,62.87
2019-01-23T02:26:00.335Z,65.60
2019-01-23T02:28:31.227Z,64.93
2019-01-23T02:31:02.409Z,68.90
2019-01-23T02:33:33.331Z,72.10
2019-01-23T02:36:04.226Z,62.27
2019-01-23T02:38:35.163Z,58.63
2019-01-23T02:41:06.129Z,65.30
2019-01-23T02:43:37.029Z,59.27
2019-01-23T02:46:07.934Z,69.00
2019-01-23T02:48:38.882Z,61.50
2019-01-23T02:51:09.787Z,55.87
2019-01-23T02:53:40.978Z,62.40
2019-01-23T02:56:11.929Z,68.80
2019-01-23T02:58:42.821Z,73.00
2019-01-23T03:01:13.726Z,64.63
2019-01-23T03:03:44.665Z,66.23
2019-01-23T03:06:15.571Z,58.43
2019-01-23T03:08:46.466Z,67.87
2019-01-23T03:11:17.478Z,67.27
2019-01-23T03:13:48.525Z,64.03
2019-01-23T03:16:19.439Z,66.87
2019-01-23T03:18:50.484Z,66.80
2019-01-23T03:21:21.450Z,60.17
2019-01-23T03:23:52.549Z,68.33
2019-01-23T03:26:23.501Z,69.70
2019-01-23T03:28:54.406Z,65.83
2019-01-23T03:31:25.672Z,63.43
2019-01-23T03:33:56.714Z,64.67
2019-01-23T03:36:27.605Z,60.63
2019-01-23T03:38:58.512Z,61.17
2019-01-23T03:41:29.476Z,60.63
2019-01-23T03:44:00.747Z,64.00
2019-01-23T03:46:31.657Z,56.77
2019-01-23T03:49:02.594Z,80.80
2019-01-23T03:51:33.790Z,69.27
2019-01-23T03:54:04.994Z,64.97
2019-01-23T03:56:36.012Z,64.27
2019-01-23T03:59:07.009Z,66.90
2019-01-23T04:01:37.908Z,65.17
2019-01-23T04:04:09.056Z,63.80
2019-01-23T04:06:39.949Z,65.23
2019-01-23T04:09:11.084Z,75.73
2019-01-23T04:11:42.354Z,64.97
2019-01-23T04:14:13.570Z,66.20
2019-01-23T04:16:44.457Z,74.77
2019-01-23T04:19:15.412Z,61.67
2019-01-23T04:21:46.388Z,64.60
2019-01-23T04:24:17.294Z,73.20
2019-01-23T04:26:48.540Z,68.40
2019-01-23T04:29:19.508Z,62.00
2019-01-23T04:31:50.413Z,60.73
2019-01-23T04:34:21.367Z,69.00
2019-01-23T04:36:52.268Z,66.43
2019-01-23T04:39:23.238Z,72.70
2019-01-23T04:41:54.313Z,64.90
2019-01-23T04:44:25.508Z,60.43
2019-01-23T04:46:56.402Z,60.70
2019-01-23T04:49:27.340Z,66.43
2019-01-23T04:52:05.742Z,68.90
2019-01-23T04:54:36.807Z,72.73
2019-01-23T04:57:07.748Z,66.97
2019-01-23T04:59:38.663Z,79.07
2019-01-23T05:02:09.606Z,71.37
2019-01-23T05:04:40.584Z,65.30
2019-01-23T05:07:11.491Z,70.30
2019-01-23T05:09:42.437Z,73.00
2019-01-23T05:12:13.352Z,63.07
2019-01-23T05:14:44.852Z,64.90
2019-01-23T05:17:15.801Z,67.73
2019-01-23T05:19:46.700Z,74.50
2019-01-23T05:22:17.650Z,65.77
2019-01-23T05:24:48.904Z,74.30
2019-01-23T05:27:19.967Z,72.00
2019-01-23T05:29:55.055Z,70.20
2019-01-23T05:32:23.531Z,69.07
2019-01-23T05:34:55.079Z,66.90
2019-01-23T05:37:26.028Z,69.73
2019-01-23T05:39:57.016Z,70.70
2019-01-23T05:42:28.071Z,70.40
2019-01-23T05:44:59.218Z,64.33
2019-01-23T05:47:30.396Z,63.40
2019-01-23T05:50:01.296Z,69.23
2019-01-23T05:52:32.258Z,64.53
2019-01-23T05:55:03.752Z,66.10
2019-01-23T05:57:34.646Z,68.30
2019-01-23T06:00:08.558Z,75.70
2019-01-23T06:02:39.747Z,69.27
2019-01-23T06:05:11.674Z,71.87
2019-01-23T06:07:42.624Z,71.40
2019-01-23T06:10:14.147Z,64.63
2019-01-23T06:12:45.346Z,61.47
2019-01-23T06:15:16.701Z,64.37
2019-01-23T06:17:47.677Z,69.33
2019-01-23T06:20:20.286Z,70.73
2019-01-23T06:22:51.849Z,68.93
2019-01-23T06:25:22.864Z,59.80
2019-01-23T06:27:53.756Z,66.93
2019-01-23T06:30:26.927Z,63.53
2019-01-23T06:32:58.137Z,69.07
2019-01-23T06:35:29.385Z,74.83
2019-01-23T06:38:00.371Z,59.90
2019-01-23T06:40:32.398Z,91.03
2019-01-23T06:43:03.343Z,73.93
2019-01-23T06:45:34.656Z,339.10
2019-01-23T06:48:05.673Z,314.20
2019-01-23T06:50:36.569Z,238.00
2019-01-23T06:53:13.823Z,133.97
2019-01-23T06:55:40.421Z,124.60
2019-01-23T06:58:11.680Z,132.53
2019-01-23T07:00:42.967Z,61.40
2019-01-23T07:03:13.915Z,73.03
2019-01-23T07:05:44.879Z,97.93
2019-01-23T07:08:15.785Z,98.77
2019-01-23T07:10:46.697Z,62.23
2019-01-23T07:13:17.642Z,69.83
2019-01-23T07:15:48.566Z,69.10
2019-01-23T07:18:19.491Z,82.77
2019-01-23T07:20:50.723Z,101.07
2019-01-23T07:23:21.705Z,86.43
2019-01-23T07:25:52.606Z,84.27
2019-01-23T07:28:23.535Z,71.47
2019-01-23T07:30:54.444Z,82.87
2019-01-23T07:33:25.324Z,77.23
2019-01-23T07:35:56.272Z,80.93
2019-01-23T07:38:27.184Z,70.97
2019-01-23T07:40:58.167Z,67.37
2019-01-23T07:43:29.123Z,61.13
2019-01-23T07:46:00.434Z,60.33
2019-01-23T07:48:31.462Z,63.77
2019-01-23T07:51:02.416Z,70.40
2019-01-23T07:53:33.610Z,67.90
2019-01-23T07:56:04.607Z,57.20
2019-01-23T07:58:35.566Z,63.37
2019-01-23T08:01:06.487Z,63.90
2019-01-23T08:03:37.692Z,69.73
2019-01-23T08:06:08.684Z,67.50
2019-01-23T08:08:39.582Z,61.07
2019-01-23T08:11:10.501Z,71.63
2019-01-23T08:13:41.518Z,65.23
2019-01-23T08:16:12.499Z,71.47
2019-01-23T08:18:43.407Z,69.17
2019-01-23T08:21:14.484Z,76.30
2019-01-23T08:23:45.697Z,63.50
2019-01-23T08:26:17.020Z,64.70
2019-01-23T08:28:47.954Z,63.70
2019-01-23T08:31:18.903Z,89.03
2019-01-23T08:33:49.933Z,61.50
2019-01-23T08:36:20.867Z,64.20
2019-01-23T08:39:10.675Z,86.90
2019-01-23T08:41:41.887Z,62.77
2019-01-23T08:44:12.822Z,65.53
2019-01-23T08:46:43.776Z,60.87
2019-01-23T08:49:15.080Z,62.30
2019-01-23T08:51:46.323Z,60.93
2019-01-23T08:54:17.285Z,63.70
2019-01-23T08:56:48.185Z,71.13
2019-01-23T08:59:19.095Z,59.23
2019-01-23T09:01:50.346Z,60.80
2019-01-23T09:04:21.351Z,59.30
2019-01-23T09:06:53.599Z,63.40
2019-01-23T09:09:24.909Z,63.90
2019-01-23T09:11:55.856Z,65.00
2019-01-23T09:14:26.937Z,72.50
2019-01-23T09:16:57.846Z,103.87
2019-01-23T09:19:28.758Z,80.93
2019-01-23T09:22:00.014Z,72.30
2019-01-23T09:24:30.956Z,81.13
2019-01-23T09:27:01.882Z,78.60
2019-01-23T09:29:32.839Z,76.67
2019-01-23T09:33:14.000Z,67.70
2019-01-23T09:36:21.621Z,63.03
2019-01-23T09:39:44.776Z,80.53
2019-01-23T09:43:05.978Z,66.63
2019-01-23T09:46:42.071Z,64.10
2019-01-23T09:49:47.683Z,69.40
2019-01-23T09:53:12.100Z,66.93
2019-01-23T09:55:43.556Z,62.00
2019-01-23T09:58:14.575Z,64.73
2019-01-23T10:00:45.590Z,63.57
2019-01-23T10:03:22.805Z,71.90
2019-01-23T10:05:49.471Z,76.60
2019-01-23T10:08:20.445Z,67.53
2019-01-23T10:10:51.407Z,61.57
2019-01-23T10:13:22.355Z,65.83
2019-01-23T10:16:13.565Z,62.43
2019-01-23T10:18:44.563Z,69.13
2019-01-23T10:21:16.288Z,62.50
2019-01-23T10:23:47.287Z,62.43
2019-01-23T10:26:18.228Z,76.73
2019-01-23T10:28:49.190Z,65.60
2019-01-23T10:31:20.173Z,69.30
2019-01-23T10:33:51.104Z,70.60
2019-01-23T10:36:22.074Z,59.17
2019-01-23T10:38:53.340Z,61.73
2019-01-23T10:41:24.310Z,68.90
2019-01-23T10:43:56.652Z,68.00
2019-01-23T10:46:27.645Z,63.13
2019-01-23T10:48:58.602Z,59.93
2019-01-23T10:51:29.561Z,63.40
2019-01-23T10:54:00.591Z,56.30
2019-01-23T10:56:31.573Z,68.37
2019-01-23T10:59:02.820Z,61.77
2019-01-23T11:01:34.135Z,56.83
2019-01-23T11:04:05.351Z,67.23
2019-01-23T11:06:36.357Z,70.33
2019-01-23T11:09:10.026Z,61.87
2019-01-23T11:11:40.989Z,64.67
2019-01-23T11:14:11.904Z,68.30
2019-01-23T11:16:42.956Z,63.23
2019-01-23T11:19:13.894Z,66.63
2019-01-23T11:21:45.148Z,72.27
2019-01-23T11:24:16.407Z,64.17
2019-01-23T11:26:47.326Z,66.33
2019-01-23T11:29:18.243Z,62.70
2019-01-23T11:31:49.317Z,63.73
2019-01-23T11:34:20.217Z,61.47
2019-01-23T11:36:51.445Z,65.37
2019-01-23T11:39:22.625Z,66.57
2019-01-23T11:41:53.652Z,65.60
2019-01-23T11:44:24.581Z,71.10
2019-01-23T11:46:55.653Z,61.30
2019-01-23T11:49:26.616Z,78.27
2019-01-23T11:51:57.575Z,79.30
2019-01-23T11:54:28.765Z,70.00
2019-01-23T11:56:59.667Z,81.90
2019-01-23T11:59:30.661Z,77.87
2019-01-23T12:02:01.779Z,85.43
2019-01-23T12:04:32.810Z,71.20
2019-01-23T12:07:03.736Z,80.30
2019-01-23T12:09:34.711Z,90.17
2019-01-23T12:12:05.748Z,85.70
2019-01-23T12:14:37.062Z,83.87
2019-01-23T12:17:08.039Z,74.20
2019-01-23T12:19:38.993Z,95.40
2019-01-23T12:22:10.134Z,84.20
2019-01-23T12:24:41.097Z,82.93
2019-01-23T12:27:12.370Z,88.73
2019-01-23T12:29:43.302Z,81.60
2019-01-23T12:32:14.579Z,80.37
2019-01-23T12:34:45.529Z,94.00
2019-01-23T12:37:16.474Z,89.77
2019-01-23T12:39:47.455Z,85.83
2019-01-23T12:42:18.387Z,93.30
2019-01-23T12:44:49.282Z,89.90
2019-01-23T12:47:20.272Z,87.33
2019-01-23T12:49:51.169Z,89.43
2019-01-23T12:52:22.251Z,89.57
2019-01-23T12:54:53.550Z,85.23
2019-01-23T12:57:24.501Z,84.80
2019-01-23T12:59:55.452Z,92.37
2019-01-23T13:02:26.467Z,100.63
2019-01-23T13:04:57.460Z,107.50
2019-01-23T13:07:28.654Z,120.00
2019-01-23T13:09:59.626Z,104.97
2019-01-23T13:12:31.681Z,103.60
2019-01-23T13:15:02.898Z,101.43
2019-01-23T13:17:33.927Z,95.70
2019-01-23T13:20:06.484Z,100.07
2019-01-23T13:22:37.388Z,107.77
2019-01-23T13:25:12.329Z,112.27
2019-01-23T13:27:43.532Z,116.03
2019-01-23T13:30:18.129Z,117.03
2019-01-23T13:32:49.343Z,125.67
2019-01-23T13:35:29.860Z,115.23
2019-01-23T13:38:01.038Z,117.03
2019-01-23T13:40:35.417Z,115.60
2019-01-23T13:43:08.331Z,110.27
2019-01-23T13:45:39.234Z,114.47
2019-01-23T13:48:11.816Z,129.53
2019-01-23T13:50:42.823Z,126.37
2019-01-23T13:53:16.137Z,113.97
2019-01-23T13:55:47.095Z,112.47
2019-01-23T13:58:18.654Z,124.73
2019-01-23T14:00:49.698Z,131.50
2019-01-23T14:03:36.439Z,134.37
2019-01-23T14:06:07.504Z,139.37
2019-01-23T14:08:38.447Z,128.47
2019-01-23T14:11:09.416Z,144.57
2019-01-23T14:13:40.447Z,129.87
2019-01-23T14:16:11.474Z,132.43
2019-01-23T14:18:42.390Z,138.20
2019-01-23T14:21:13.368Z,111.27
2019-01-23T14:23:44.312Z,122.27
2019-01-23T14:26:15.296Z,131.03
2019-01-23T14:28:46.289Z,116.10
2019-01-23T14:31:17.199Z,118.00
2019-01-23T14:33:48.141Z,117.70
2019-01-23T14:36:19.099Z,114.90
2019-01-23T14:38:50.040Z,129.47
2019-01-23T14:41:20.944Z,123.27
2019-01-23T14:43:51.923Z,128.93
2019-01-23T14:46:22.921Z,121.07
2019-01-23T14:48:53.854Z,138.73
2019-01-23T14:51:24.871Z,116.20
2019-01-23T14:53:55.785Z,115.40
2019-01-23T14:56:28.577Z,104.03
2019-01-23T14:58:59.592Z,135.63
2019-01-23T15:01:30.518Z,129.40
2019-01-23T15:04:01.500Z,126.53
2019-01-23T15:06:32.594Z,122.47
2019-01-23T15:09:05.313Z,121.83
2019-01-23T15:11:36.560Z,128.93
2019-01-23T15:14:07.889Z,123.27
2019-01-23T15:16:38.849Z,116.60
2019-01-23T15:19:10.100Z,122.57
2019-01-23T15:21:41.091Z,114.50
2019-01-23T15:24:12.008Z,109.20
2019-01-23T15:26:43.591Z,123.60
2019-01-23T15:29:14.524Z,116.83
2019-01-23T15:31:45.431Z,119.87
2019-01-23T15:34:16.394Z,132.80
2019-01-23T15:36:47.332Z,113.33
2019-01-23T15:39:18.373Z,119.87
2019-01-23T15:41:49.485Z,122.50
2019-01-23T15:44:20.450Z,115.73
2019-01-23T15:46:51.428Z,123.63
2019-01-23T15:49:22.747Z,109.20
2019-01-23T15:51:53.704Z,122.03
2019-01-23T15:54:24.844Z,118.70
2019-01-23T15:56:55.878Z,122.60
2019-01-23T15:59:27.181Z,125.17
2019-01-23T16:01:58.157Z,116.60
2019-01-23T16:04:29.156Z,106.80
2019-01-23T16:07:00.694Z,121.60
2019-01-23T16:09:31.609Z,105.27
2019-01-23T16:12:02.597Z,107.93
2019-01-23T16:14:33.533Z,114.57
2019-01-23T16:17:05.092Z,116.13
2019-01-23T16:19:36.349Z,113.90
2019-01-23T16:22:07.275Z,119.70
2019-01-23T16:24:38.872Z,118.37
2019-01-23T16:27:09.861Z,134.63
2019-01-23T16:29:41.083Z,108.83
2019-01-23T16:32:12.371Z,105.37
2019-01-23T16:34:43.392Z,121.23
2019-01-23T16:37:14.541Z,127.33
2019-01-23T16:39:45.527Z,122.53
2019-01-23T16:42:16.450Z,124.90
2019-01-23T16:44:47.426Z,118.13
2019-01-23T16:47:18.591Z,100.87
2019-01-23T16:49:49.542Z,123.53
2019-01-23T16:52:20.875Z,120.53
2019-01-23T16:54:51.897Z,123.37
2019-01-23T16:57:23.266Z,117.27
2019-01-23T16:59:54.963Z,122.70
2019-01-23T17:02:25.955Z,110.47
2019-01-23T17:04:56.971Z,96.47
2019-01-23T17:07:29.020Z,118.40
2019-01-23T17:09:59.956Z,98.23
2019-01-23T17:12:31.068Z,114.07
2019-01-23T17:15:02.078Z,115.53
2019-01-23T17:17:33.133Z,105.23
2019-01-23T17:20:04.210Z,100.43
2019-01-23T17:22:35.161Z,100.63
2019-01-23T17:25:07.869Z,99.90
2019-01-23T17:27:39.379Z,100.57
2019-01-23T17:30:11.617Z,108.30
2019-01-23T17:32:45.716Z,100.23
2019-01-23T17:35:17.803Z,117.73
2019-01-23T17:37:49.007Z,110.13
2019-01-23T17:40:20.898Z,108.37
2019-01-23T17:43:00.780Z,112.67
2019-01-23T17:45:35.384Z,105.77
2019-01-23T17:48:09.212Z,122.07
2019-01-23T17:50:40.285Z,121.70
2019-01-23T17:53:11.722Z,101.83
2019-01-23T17:55:44.538Z,123.90
2019-01-23T17:58:16.546Z,114.83
2019-01-23T18:00:58.094Z,144.17
2019-01-23T18:03:29.397Z,135.87
2019-01-23T18:06:00.371Z,127.43
2019-01-23T18:08:31.500Z,129.93
2019-01-23T18:11:02.505Z,140.33
2019-01-23T18:13:33.852Z,126.93
2019-01-23T18:16:14.538Z,134.90
2019-01-23T18:18:45.620Z,134.73
2019-01-23T18:21:16.544Z,141.83
2019-01-23T18:23:50.552Z,144.07
2019-01-23T18:26:21.872Z,136.97
2019-01-23T18:28:54.246Z,131.77
2019-01-23T18:31:56.540Z,132.70
2019-01-23T18:35:24.603Z,115.93
2019-01-23T18:38:37.644Z,135.90
2019-01-23T18:42:33.755Z,109.40
2019-01-23T18:45:40.461Z,118.10
2019-01-23T18:49:26.133Z,122.73
2019-01-23T18:52:16.229Z,134.83
2019-01-23T18:54:47.807Z,144.53
2019-01-23T18:57:23.634Z,151.63
2019-01-23T18:59:59.599Z,130.93
2019-01-23T19:02:31.366Z,143.60
2019-01-23T19:05:06.038Z,139.10
2019-01-23T19:07:37.324Z,150.70
2019-01-23T19:10:13.422Z,146.83
2019-01-23T19:12:46.737Z,156.13
2019-01-23T19:15:20.983Z,140.83
2019-01-23T19:17:52.039Z,143.27
2019-01-23T19:20:23.416Z,151.67
2019-01-23T19:22:54.371Z,140.60
2019-01-23T19:25:25.722Z,174.00
2019-01-23T19:27:59.171Z,130.87
2019-01-23T19:30:30.441Z,139.70
2019-01-23T19:33:01.576Z,151.90
2019-01-23T19:35:32.912Z,151.67
2019-01-23T19:38:05.624Z,151.53
2019-01-23T19:40:36.605Z,176.17
2019-01-23T19:43:08.292Z,160.27
2019-01-23T19:45:39.237Z,159.43
2019-01-23T19:48:11.944Z,156.17
2019-01-23T19:50:42.989Z,188.90
2019-01-23T19:53:15.951Z,163.77
2019-01-23T19:55:47.244Z,175.33
2019-01-23T19:58:18.245Z,209.50
2019-01-23T20:00:49.571Z,177.10
2019-01-23T20:03:20.844Z,183.00
2019-01-23T20:05:51.935Z,191.47
2019-01-23T20:08:23.213Z,182.57
2019-01-23T20:10:54.132Z,171.93
2019-01-23T20:13:25.116Z,175.97
2019-01-23T20:15:56.090Z,168.77
2019-01-23T20:18:27.599Z,184.90
2019-01-23T20:20:58.704Z,192.87
2019-01-23T20:23:29.754Z,188.97
2019-01-23T20:26:01.406Z,183.83
2019-01-23T20:28:32.392Z,189.87
2019-01-23T20:31:03.363Z,190.63
2019-01-23T20:33:34.679Z,193.90
2019-01-23T20:36:05.910Z,204.90
2019-01-23T20:38:36.876Z,208.17
2019-01-23T20:41:07.868Z,198.50
2019-01-23T20:43:39.554Z,196.50
2019-01-23T20:46:10.862Z,193.57
2019-01-23T20:48:43.045Z,183.53
2019-01-23T20:51:14.077Z,206.43
2019-01-23T20:53:45.351Z,214.43
2019-01-23T20:56:16.949Z,185.17
2019-01-23T20:58:48.235Z,181.77
2019-01-23T21:01:19.205Z,204.13
2019-01-23T21:03:50.201Z,190.97
2019-01-23T21:06:21.512Z,235.93
2019-01-23T21:08:52.473Z,179.33
2019-01-23T21:11:23.558Z,210.00
2019-01-23T21:13:54.546Z,186.77
2019-01-23T21:16:25.570Z,223.50
2019-01-23T21:18:56.574Z,204.53
2019-01-23T21:21:28.489Z,208.27
2019-01-23T21:23:59.426Z,193.03
2019-01-23T21:26:30.491Z,193.10
2019-01-23T21:29:01.450Z,212.50
2019-01-23T21:31:32.430Z,208.10
2019-01-23T21:34:03.406Z,190.67
2019-01-23T21:36:34.432Z,210.57
2019-01-23T21:39:08.897Z,195.70
2019-01-23T21:41:39.923Z,206.47
2019-01-23T21:44:10.850Z,168.43
2019-01-23T21:46:41.820Z,187.97
2019-01-23T21:49:13.066Z,197.47
2019-01-23T21:51:44.086Z,189.77
2019-01-23T21:54:15.041Z,206.43
2019-01-23T21:56:46.276Z,216.07
2019-01-23T21:59:17.301Z,199.10
2019-01-23T22:01:48.201Z,202.73
2019-01-23T22:04:19.186Z,209.77
2019-01-23T22:06:50.107Z,220.27
2019-01-23T22:09:21.062Z,198.90
2019-01-23T22:11:52.016Z,204.40
2019-01-23T22:14:22.956Z,252.33
2019-01-23T22:16:54.219Z,214.57
2019-01-23T22:19:25.202Z,202.63
2019-01-23T22:21:56.158Z,209.10
2019-01-23T22:24:27.224Z,240.73
2019-01-23T22:26:58.199Z,202.27
2019-01-23T22:29:29.155Z,169.70
2019-01-23T22:32:00.376Z,197.50
2019-01-23T22:34:31.717Z,209.97
2019-01-23T22:37:02.922Z,183.13
2019-01-23T22:39:33.870Z,220.87
2019-01-23T22:42:05.221Z,192.27
2019-01-23T22:44:36.756Z,181.07
2019-01-23T22:47:07.903Z,205.30
2019-01-23T22:49:39.229Z,219.33
2019-01-23T22:52:10.139Z,194.00
2019-01-23T22:54:41.148Z,194.80
2019-01-23T22:57:12.091Z,194.87
2019-01-23T22:59:43.051Z,185.67
2019-01-23T23:02:14.359Z,217.43
2019-01-23T23:04:45.380Z,217.73
2019-01-23T23:07:16.594Z,181.20
2019-01-23T23:09:47.526Z,204.53
2019-01-23T23:12:18.489Z,205.63
2019-01-23T23:14:49.438Z,184.27
2019-01-23T23:17:20.381Z,180.53
2019-01-23T23:19:51.356Z,185.67
2019-01-23T23:22:22.305Z,175.67
2019-01-23T23:24:53.261Z,175.57
2019-01-23T23:27:24.186Z,174.37
2019-01-23T23:29:55.108Z,142.00
2019-01-23T23:32:26.117Z,133.87
2019-01-23T23:34:57.094Z,144.30
2019-01-23T23:37:28.116Z,156.87
2019-01-23T23:39:59.239Z,126.80
2019-01-23T23:42:30.278Z,125.60
2019-01-23T23:47:32.188Z,125.63
2019-01-23T23:50:03.130Z,105.97
2019-01-23T23:52:34.114Z,122.20
2019-01-23T23:55:05.640Z,119.30
2019-01-23T23:57:36.620Z,106.10
